KACT/ACT METAR and TAF weather

Enter ICAO airport designator
Station Type Date Time Source
KACT METAR 2019/12/08 18:51 UTC NOAA

KACT 081851Z 18017G24KT 10SM CLR 21/12 A2993 RMK AO2 SLP130 T02110117 $


Station Type Date Time Source
KACT Decoded METAR 2019/12/08 18:51 UTC NOAA

WACO REGIONAL AIRPORT, TX, United States (KACT) 31-36N 97-13W 151M
Dec 08, 2019 - 01:51 PM EST / 2019.12.08 1851 UTC
Wind: from the S (180 degrees) at 20 MPH (17 KT) gusting to 28 MPH (24 KT):0
Visibility: 10 mile(s):0
Sky conditions: clear
Temperature: 70.0 F (21.1 C)
Dew Point: 53.1 F (11.7 C)
Relative Humidity: 54%
Pressure (altimeter): 29.93 in. Hg (1013 hPa)
ob: KACT 081851Z 18017G24KT 10SM CLR 21/12 A2993 RMK AO2 SLP130 T02110117
cycle: 19

Station Type Date Time Source
KACT TAF 2019/12/08 18:33 UTC NOAA

TAF KACT 081729Z 0818/0918 19017G26KT P6SM BKN250
FM090000 19015KT P6SM BKN250
FM091000 20011KT P6SM BKN150
FM091700 26012KT P6SM BKN100

Example: see airport list